createdAt,value
2019-02-24T00:00:11.955Z,20.97
2019-02-24T00:02:52.877Z,16.87
2019-02-24T00:05:33.325Z,16.03
2019-02-24T00:08:14.014Z,19.10
2019-02-24T00:10:54.606Z,15.43
2019-02-24T00:13:35.425Z,16.57
2019-02-24T00:16:16.475Z,14.87
2019-02-24T00:18:57.657Z,15.63
2019-02-24T00:21:38.287Z,15.87
2019-02-24T00:24:19.384Z,16.47
2019-02-24T00:27:00.190Z,18.43
2019-02-24T00:29:40.944Z,16.47
2019-02-24T00:32:21.622Z,16.27
2019-02-24T00:35:02.534Z,14.83
2019-02-24T00:37:43.275Z,16.50
2019-02-24T00:40:23.986Z,16.47
2019-02-24T00:43:04.884Z,14.50
2019-02-24T00:45:45.775Z,15.17
2019-02-24T00:48:26.465Z,16.10
2019-02-24T00:51:07.498Z,16.13
2019-02-24T00:53:48.253Z,14.33
2019-02-24T00:56:29.221Z,14.43
2019-02-24T00:59:09.938Z,12.27
2019-02-24T01:01:50.710Z,13.07
2019-02-24T01:04:31.841Z,13.13
2019-02-24T01:07:12.943Z,13.80
2019-02-24T01:09:53.893Z,14.43
2019-02-24T01:12:34.723Z,16.60
2019-02-24T01:15:15.483Z,17.07
2019-02-24T01:17:56.403Z,15.77
2019-02-24T01:20:37.161Z,15.03
2019-02-24T01:23:17.945Z,12.20
2019-02-24T01:25:58.873Z,13.33
2019-02-24T01:28:39.733Z,12.37
2019-02-24T01:31:20.647Z,12.60
2019-02-24T01:34:01.591Z,12.30
2019-02-24T01:36:42.733Z,13.40
2019-02-24T01:39:23.375Z,16.37
2019-02-24T01:42:04.440Z,14.20
2019-02-24T01:44:44.979Z,13.77
2019-02-24T01:47:25.742Z,13.43
2019-02-24T01:50:06.521Z,12.47
2019-02-24T01:52:47.234Z,12.70
2019-02-24T01:55:28.406Z,15.97
2019-02-24T01:58:09.141Z,11.67
2019-02-24T02:00:50.151Z,12.93
2019-02-24T02:03:31.102Z,14.70
2019-02-24T02:06:11.615Z,15.73
2019-02-24T02:08:52.275Z,15.27
2019-02-24T02:11:33.092Z,13.67
2019-02-24T02:14:13.861Z,14.10
2019-02-24T02:16:54.767Z,13.13
2019-02-24T02:19:35.659Z,12.20
2019-02-24T02:22:16.340Z,12.10
2019-02-24T02:24:57.107Z,13.87
2019-02-24T02:27:37.941Z,12.40
2019-02-24T02:30:19.054Z,14.10
2019-02-24T02:32:59.794Z,12.60
2019-02-24T02:35:40.325Z,13.40
2019-02-24T02:38:20.963Z,14.60
2019-02-24T02:41:01.931Z,15.63
2019-02-24T02:43:42.622Z,15.03
2019-02-24T02:46:23.734Z,15.13
2019-02-24T02:49:04.678Z,17.90
2019-02-24T02:51:45.266Z,14.80
2019-02-24T02:54:25.730Z,17.67
2019-02-24T02:57:06.605Z,17.60
2019-02-24T02:59:47.467Z,17.27
2019-02-24T03:02:28.040Z,15.50
2019-02-24T03:05:08.602Z,14.23
2019-02-24T03:07:51.046Z,16.20
2019-02-24T03:10:31.793Z,16.23
2019-02-24T03:13:12.904Z,17.93
2019-02-24T03:15:53.653Z,15.30
2019-02-24T03:18:33.882Z,17.33
2019-02-24T03:21:14.474Z,14.90
2019-02-24T03:23:55.396Z,15.97
2019-02-24T03:26:35.841Z,15.33
2019-02-24T03:29:16.678Z,18.70
2019-02-24T03:31:57.410Z,15.73
2019-02-24T03:34:38.163Z,11.10
2019-02-24T03:37:19.123Z,13.10
2019-02-24T03:39:59.910Z,11.27
2019-02-24T03:42:40.768Z,10.93
2019-02-24T03:45:21.634Z,11.30
2019-02-24T03:48:02.551Z,13.40
2019-02-24T03:50:43.279Z,12.80
2019-02-24T03:53:24.240Z,11.33
2019-02-24T03:56:04.739Z,10.60
2019-02-24T03:58:45.638Z,12.67
2019-02-24T04:01:26.530Z,10.53
2019-02-24T04:04:07.142Z,12.13
2019-02-24T04:06:47.985Z,11.27
2019-02-24T04:09:28.961Z,11.03
2019-02-24T04:12:09.609Z,10.47
2019-02-24T04:14:50.216Z,10.07
2019-02-24T04:17:31.138Z,10.13
2019-02-24T04:20:12.136Z,11.60
2019-02-24T04:22:52.854Z,12.37
2019-02-24T04:25:33.494Z,11.77
2019-02-24T04:28:14.361Z,13.10
2019-02-24T04:30:55.160Z,8.13
2019-02-24T04:33:35.899Z,9.97
2019-02-24T04:36:16.536Z,12.13
2019-02-24T04:38:57.164Z,12.40
2019-02-24T04:41:37.813Z,9.50
2019-02-24T04:44:18.791Z,10.00
2019-02-24T04:46:59.610Z,12.33
2019-02-24T04:49:40.221Z,12.37
2019-02-24T04:52:21.124Z,10.63
2019-02-24T04:55:01.643Z,11.07
2019-02-24T04:57:42.425Z,11.17
2019-02-24T05:00:23.482Z,11.53
2019-02-24T05:03:04.254Z,10.37
2019-02-24T05:05:44.957Z,10.67
2019-02-24T05:08:25.400Z,10.00
2019-02-24T05:11:06.653Z,11.20
2019-02-24T05:13:47.299Z,12.53
2019-02-24T05:16:28.085Z,11.13
2019-02-24T05:19:09.053Z,12.63
2019-02-24T05:21:50.202Z,13.57
2019-02-24T05:24:31.338Z,12.57
2019-02-24T05:27:12.103Z,10.67
2019-02-24T05:29:52.774Z,11.70
2019-02-24T05:32:33.807Z,10.53
2019-02-24T05:35:14.575Z,9.80
2019-02-24T05:37:55.402Z,11.77
2019-02-24T05:40:36.456Z,11.40
2019-02-24T05:43:16.952Z,15.30
2019-02-24T05:45:57.582Z,13.50
2019-02-24T05:48:38.517Z,11.30
2019-02-24T05:51:19.216Z,10.97
2019-02-24T05:53:59.989Z,11.93
2019-02-24T05:56:40.756Z,11.83
2019-02-24T05:59:21.239Z,13.40
2019-02-24T06:02:02.185Z,13.77
2019-02-24T06:04:43.051Z,13.53
2019-02-24T06:07:24.030Z,11.63
2019-02-24T06:10:04.494Z,13.00
2019-02-24T06:12:45.452Z,11.50
2019-02-24T06:15:26.310Z,10.50
2019-02-24T06:18:07.034Z,13.60
2019-02-24T06:20:47.398Z,11.70
2019-02-24T06:23:28.416Z,13.63
2019-02-24T06:26:08.795Z,14.17
2019-02-24T06:28:49.723Z,12.40
2019-02-24T06:31:30.472Z,12.47
2019-02-24T06:34:11.250Z,12.27
2019-02-24T06:36:52.015Z,12.60
2019-02-24T06:39:32.444Z,13.10
2019-02-24T06:42:12.989Z,13.70
2019-02-24T06:44:53.643Z,11.13
2019-02-24T06:47:34.500Z,14.53
2019-02-24T06:50:15.149Z,14.50
2019-02-24T06:52:55.897Z,12.70
2019-02-24T06:55:36.814Z,13.37
2019-02-24T06:58:18.534Z,13.70
2019-02-24T07:00:58.910Z,14.63
2019-02-24T07:03:39.918Z,13.77
2019-02-24T07:06:20.686Z,13.77
2019-02-24T07:09:01.658Z,15.07
2019-02-24T07:11:42.522Z,13.13
2019-02-24T07:14:23.444Z,13.47
2019-02-24T07:17:04.119Z,14.57
2019-02-24T07:19:44.946Z,13.40
2019-02-24T07:22:25.808Z,14.13
2019-02-24T07:25:06.145Z,16.60
2019-02-24T07:27:46.760Z,14.57
2019-02-24T07:30:27.588Z,16.60
2019-02-24T07:33:08.279Z,17.63
2019-02-24T07:35:48.673Z,15.87
2019-02-24T07:38:29.329Z,15.47
2019-02-24T07:41:09.687Z,13.23
2019-02-24T07:43:50.246Z,17.03
2019-02-24T07:46:30.792Z,17.00
2019-02-24T07:49:11.787Z,15.30
2019-02-24T07:51:52.176Z,15.67
2019-02-24T07:54:32.676Z,16.00
2019-02-24T07:57:13.490Z,15.33
2019-02-24T07:59:54.426Z,17.00
2019-02-24T08:02:35.345Z,15.10
2019-02-24T08:05:15.978Z,13.70
2019-02-24T08:07:56.794Z,13.60
2019-02-24T08:10:37.839Z,16.20
2019-02-24T08:13:18.475Z,13.60
2019-02-24T08:15:58.858Z,14.33
2019-02-24T08:18:39.294Z,15.67
2019-02-24T08:21:19.798Z,13.73
2019-02-24T08:24:00.381Z,13.87
2019-02-24T08:26:41.039Z,14.63
2019-02-24T08:29:21.929Z,15.53
2019-02-24T08:32:02.497Z,15.27
2019-02-24T08:34:43.513Z,15.83
2019-02-24T08:37:24.344Z,13.77
2019-02-24T08:40:04.945Z,16.33
2019-02-24T08:42:45.439Z,16.00
2019-02-24T08:45:26.112Z,14.57
2019-02-24T08:48:06.706Z,13.80
2019-02-24T08:50:47.328Z,15.37
2019-02-24T08:53:28.000Z,12.97
2019-02-24T08:56:08.426Z,15.77
2019-02-24T08:58:49.049Z,12.37
2019-02-24T09:01:29.932Z,15.17
2019-02-24T09:04:10.648Z,14.83
2019-02-24T09:06:51.453Z,18.53
2019-02-24T09:09:32.092Z,16.30
2019-02-24T09:12:14.868Z,13.10
2019-02-24T09:14:55.573Z,16.57
2019-02-24T09:17:36.423Z,13.40
2019-02-24T09:20:17.209Z,14.63
2019-02-24T09:22:57.814Z,13.37
2019-02-24T09:25:38.763Z,15.03
2019-02-24T09:28:19.293Z,17.00
2019-02-24T09:31:01.017Z,15.50
2019-02-24T09:33:41.703Z,15.43
2019-02-24T09:36:22.067Z,15.93
2019-02-24T09:39:02.824Z,15.57
2019-02-24T09:41:43.506Z,13.20
2019-02-24T09:44:24.074Z,14.93
2019-02-24T09:49:48.022Z,15.60
2019-02-24T09:52:28.450Z,14.40
2019-02-24T09:55:08.939Z,12.73
2019-02-24T09:57:49.310Z,14.63
2019-02-24T10:00:29.865Z,13.13
2019-02-24T10:03:10.376Z,14.97
2019-02-24T10:05:50.731Z,13.80
2019-02-24T10:08:31.635Z,17.27
2019-02-24T10:11:13.263Z,13.57
2019-02-24T10:13:54.245Z,15.07
2019-02-24T10:16:35.158Z,14.30
2019-02-24T10:19:15.839Z,13.17
2019-02-24T10:21:56.577Z,14.40
2019-02-24T10:24:37.221Z,13.57
2019-02-24T10:27:17.721Z,13.13
2019-02-24T10:29:58.606Z,15.47
2019-02-24T10:32:39.174Z,12.47
2019-02-24T10:35:19.959Z,12.63
2019-02-24T10:38:00.419Z,13.30
2019-02-24T10:40:41.367Z,11.90
2019-02-24T10:43:21.990Z,12.57
2019-02-24T10:46:02.305Z,14.23
2019-02-24T10:48:43.034Z,12.87
2019-02-24T10:51:25.362Z,10.97
2019-02-24T10:54:06.270Z,9.60
2019-02-24T10:56:46.915Z,12.83
2019-02-24T10:59:27.931Z,11.13
2019-02-24T11:02:09.006Z,9.80
2019-02-24T11:04:49.711Z,11.93
2019-02-24T11:07:30.173Z,14.03
2019-02-24T11:10:10.620Z,10.03
2019-02-24T11:12:51.221Z,9.10
2019-02-24T11:15:31.963Z,10.70
2019-02-24T11:18:13.054Z,10.27
2019-02-24T11:20:53.851Z,9.43
2019-02-24T11:23:34.163Z,9.53
2019-02-24T11:26:15.038Z,9.50
2019-02-24T11:28:55.971Z,10.07
2019-02-24T11:31:38.539Z,8.97
2019-02-24T11:34:19.419Z,8.67
2019-02-24T11:37:00.262Z,9.03
2019-02-24T11:39:40.828Z,8.67
2019-02-24T11:42:21.424Z,8.33
2019-02-24T11:45:01.987Z,9.53
2019-02-24T11:47:42.637Z,8.93
2019-02-24T11:50:23.462Z,9.23
2019-02-24T11:53:04.170Z,8.73
2019-02-24T11:55:44.848Z,35.93
2019-02-24T11:58:25.628Z,7.73
2019-02-24T12:01:06.127Z,8.40
2019-02-24T12:03:46.956Z,6.93
2019-02-24T12:06:27.601Z,7.43
2019-02-24T12:09:08.388Z,6.80
2019-02-24T12:11:49.215Z,8.00
2019-02-24T12:14:30.057Z,6.17
2019-02-24T12:17:10.812Z,7.00
2019-02-24T12:19:51.315Z,7.33
2019-02-24T12:22:32.075Z,9.93
2019-02-24T12:25:12.658Z,9.63
2019-02-24T12:27:53.527Z,9.07
2019-02-24T12:30:33.887Z,8.27
2019-02-24T12:33:14.319Z,7.43
2019-02-24T12:35:54.926Z,7.73
2019-02-24T12:38:35.733Z,7.40
2019-02-24T12:41:16.149Z,7.17
2019-02-24T12:43:57.210Z,7.40
2019-02-24T12:46:37.674Z,7.00
2019-02-24T12:49:18.264Z,7.07
2019-02-24T12:51:58.974Z,7.77
2019-02-24T12:54:39.784Z,6.23
2019-02-24T12:57:20.537Z,6.20
2019-02-24T13:00:00.899Z,6.87
2019-02-24T13:02:41.441Z,6.37
2019-02-24T13:05:22.325Z,6.50
2019-02-24T13:08:03.010Z,8.67
2019-02-24T13:10:43.611Z,8.13
2019-02-24T13:13:24.459Z,8.33
2019-02-24T13:16:05.231Z,8.50
2019-02-24T13:18:45.811Z,12.73
2019-02-24T13:21:26.136Z,7.90
2019-02-24T13:24:07.107Z,8.20
2019-02-24T13:26:47.797Z,8.23
2019-02-24T13:29:28.338Z,7.67
2019-02-24T13:32:14.849Z,6.67
2019-02-24T13:34:51.685Z,7.63
2019-02-24T13:37:32.179Z,9.93
2019-02-24T13:40:13.041Z,7.90
2019-02-24T13:42:53.855Z,7.10
2019-02-24T13:45:34.653Z,9.13
2019-02-24T13:48:15.074Z,7.80
2019-02-24T13:50:56.224Z,7.47
2019-02-24T13:53:38.230Z,8.60
2019-02-24T13:56:18.928Z,6.17
2019-02-24T13:58:59.626Z,6.27
2019-02-24T14:01:40.323Z,5.97
2019-02-24T14:04:21.177Z,6.33
2019-02-24T14:07:02.215Z,7.77
2019-02-24T14:09:42.991Z,9.70
2019-02-24T14:12:23.717Z,6.23
2019-02-24T14:15:04.625Z,7.33
2019-02-24T14:17:45.279Z,8.57
2019-02-24T14:20:26.079Z,8.87
2019-02-24T14:23:06.564Z,9.13
2019-02-24T14:25:46.997Z,9.37
2019-02-24T14:28:27.992Z,8.60
2019-02-24T14:31:08.538Z,9.13
2019-02-24T14:33:49.501Z,8.77
2019-02-24T14:36:29.875Z,10.20
2019-02-24T14:39:10.486Z,7.43
2019-02-24T14:41:51.243Z,7.13
2019-02-24T14:44:32.026Z,7.23
2019-02-24T14:47:12.906Z,8.77
2019-02-24T14:49:53.899Z,7.97
2019-02-24T14:52:34.783Z,7.57
2019-02-24T14:55:15.640Z,9.60
2019-02-24T14:57:56.054Z,8.10
2019-02-24T15:00:37.189Z,11.20
2019-02-24T15:03:17.897Z,7.50
2019-02-24T15:05:58.731Z,6.97
2019-02-24T15:08:39.565Z,8.93
2019-02-24T15:11:20.432Z,7.17
2019-02-24T15:14:00.858Z,8.67
2019-02-24T15:16:41.772Z,6.63
2019-02-24T15:19:22.553Z,8.27
2019-02-24T15:22:03.490Z,8.83
2019-02-24T15:24:44.296Z,8.30
2019-02-24T15:27:24.938Z,6.80
2019-02-24T15:30:05.384Z,6.77
2019-02-24T15:32:51.765Z,5.30
2019-02-24T15:35:28.727Z,5.40
2019-02-24T15:38:09.366Z,6.70
2019-02-24T15:40:50.268Z,7.57
2019-02-24T15:43:31.037Z,9.67
2019-02-24T15:46:11.746Z,7.50
2019-02-24T15:48:52.675Z,7.67
2019-02-24T15:51:33.169Z,7.37
2019-02-24T15:54:14.101Z,6.73
2019-02-24T15:56:54.906Z,5.60
2019-02-24T15:59:35.619Z,8.90
2019-02-24T16:02:16.354Z,7.93
2019-02-24T16:04:57.094Z,7.07
2019-02-24T16:07:37.445Z,7.50
2019-02-24T16:10:18.108Z,7.07
2019-02-24T16:12:58.770Z,7.43
2019-02-24T16:15:39.208Z,7.33
2019-02-24T16:18:20.123Z,7.03
2019-02-24T16:21:00.943Z,6.90
2019-02-24T16:23:41.927Z,7.53
2019-02-24T16:26:22.379Z,8.57
2019-02-24T16:29:02.673Z,8.13
2019-02-24T16:31:43.203Z,7.40
2019-02-24T16:34:23.531Z,7.13
2019-02-24T16:37:04.106Z,8.40
2019-02-24T16:39:45.235Z,8.67
2019-02-24T16:42:26.002Z,7.47
2019-02-24T16:45:06.767Z,7.67
2019-02-24T16:47:47.261Z,10.33
2019-02-24T16:50:28.150Z,12.23
2019-02-24T16:53:09.090Z,11.23
2019-02-24T16:55:49.942Z,7.77
2019-02-24T16:58:30.499Z,10.53
2019-02-24T17:01:11.431Z,8.07
2019-02-24T17:03:52.368Z,10.73
2019-02-24T17:06:32.685Z,9.37
2019-02-24T17:09:13.541Z,11.07
2019-02-24T17:11:54.533Z,10.63
2019-02-24T17:14:35.267Z,10.93
2019-02-24T17:17:15.884Z,10.13
2019-02-24T17:19:56.913Z,10.77
2019-02-24T17:22:37.463Z,9.43
2019-02-24T17:25:18.310Z,8.70
2019-02-24T17:27:59.199Z,10.13
2019-02-24T17:30:40.217Z,8.53
2019-02-24T17:33:29.777Z,8.87
2019-02-24T17:38:45.916Z,11.67
2019-02-24T17:41:26.766Z,9.07
2019-02-24T17:44:07.643Z,11.37
2019-02-24T17:46:48.582Z,12.23
2019-02-24T17:49:29.102Z,10.57
2019-02-24T17:52:10.019Z,12.63
2019-02-24T17:54:50.505Z,11.53
2019-02-24T17:57:31.341Z,14.10
2019-02-24T18:00:11.822Z,11.03
2019-02-24T18:02:52.526Z,12.27
2019-02-24T18:05:33.055Z,15.03
2019-02-24T18:08:13.750Z,15.67
2019-02-24T18:10:54.410Z,15.07
2019-02-24T18:13:35.147Z,17.00
2019-02-24T18:16:15.756Z,22.33
2019-02-24T18:18:56.554Z,21.10
2019-02-24T18:21:37.505Z,18.10
2019-02-24T18:24:17.913Z,17.83
2019-02-24T18:26:58.398Z,19.43
2019-02-24T18:29:39.262Z,20.13
2019-02-24T18:32:20.983Z,17.10
2019-02-24T18:35:01.507Z,15.60
2019-02-24T18:37:42.023Z,17.00
2019-02-24T18:40:22.537Z,15.50
2019-02-24T18:43:03.399Z,15.27
2019-02-24T18:45:44.053Z,15.00
2019-02-24T18:48:24.755Z,16.33
2019-02-24T18:51:05.133Z,15.27
2019-02-24T18:53:45.700Z,19.90
2019-02-24T18:56:26.644Z,15.60
2019-02-24T18:59:07.181Z,15.47
2019-02-24T19:01:47.953Z,17.17
2019-02-24T19:04:29.010Z,17.50
2019-02-24T19:07:09.743Z,14.87
2019-02-24T19:09:50.341Z,15.60
2019-02-24T19:12:30.878Z,18.00
2019-02-24T19:15:11.575Z,18.40
2019-02-24T19:17:51.949Z,17.13
2019-02-24T19:20:32.528Z,20.13
2019-02-24T19:23:13.452Z,15.73
2019-02-24T19:25:54.075Z,15.20
2019-02-24T19:28:34.759Z,15.27
2019-02-24T19:31:15.146Z,14.43
2019-02-24T19:33:55.554Z,11.53
2019-02-24T19:36:36.592Z,12.33
2019-02-24T19:39:17.331Z,11.73
2019-02-24T19:41:57.719Z,10.77
2019-02-24T19:44:38.156Z,13.43
2019-02-24T19:47:18.815Z,11.10
2019-02-24T19:49:59.666Z,14.23
2019-02-24T19:52:40.115Z,14.27
2019-02-24T19:55:20.558Z,12.33
2019-02-24T19:58:01.165Z,13.33
2019-02-24T20:00:41.787Z,16.03
2019-02-24T20:03:22.321Z,13.30
2019-02-24T20:06:02.903Z,14.40
2019-02-24T20:08:43.552Z,12.83
2019-02-24T20:11:24.367Z,13.57
2019-02-24T20:14:04.736Z,14.23
2019-02-24T20:16:45.391Z,14.87
2019-02-24T20:19:26.281Z,14.43
2019-02-24T20:22:06.997Z,12.00
2019-02-24T20:24:47.529Z,14.00
2019-02-24T20:27:28.339Z,14.90
2019-02-24T20:30:09.042Z,13.77
2019-02-24T20:32:49.563Z,13.00
2019-02-24T20:35:30.023Z,13.20
2019-02-24T20:38:10.629Z,12.80
2019-02-24T20:40:51.515Z,12.43
2019-02-24T20:43:32.411Z,16.87
2019-02-24T20:46:13.218Z,14.83
2019-02-24T20:48:41.683Z,17.90
2019-02-24T20:51:29.545Z,14.17
2019-02-24T20:54:17.347Z,13.83
2019-02-24T20:56:58.474Z,13.63
2019-02-24T20:59:38.734Z,14.00
2019-02-24T21:02:19.414Z,13.67
2019-02-24T21:05:00.053Z,18.33
2019-02-24T21:07:40.846Z,15.57
2019-02-24T21:10:21.580Z,27.37
2019-02-24T21:13:02.289Z,14.67
2019-02-24T21:15:43.304Z,19.77
2019-02-24T21:18:24.377Z,17.90
2019-02-24T21:21:05.460Z,13.23
2019-02-24T21:23:46.646Z,15.17
2019-02-24T21:26:27.362Z,14.43
2019-02-24T21:29:08.339Z,15.63
2019-02-24T21:31:49.551Z,14.70
2019-02-24T21:34:29.979Z,14.47
2019-02-24T21:37:10.737Z,15.17
2019-02-24T21:39:51.517Z,16.33
2019-02-24T21:42:32.363Z,17.97
2019-02-24T21:45:13.318Z,16.53
2019-02-24T21:47:53.986Z,14.47
2019-02-24T21:50:34.997Z,15.27
2019-02-24T21:53:16.018Z,13.73
2019-02-24T21:55:56.586Z,15.70
2019-02-24T21:58:37.392Z,14.80
2019-02-24T22:01:17.887Z,14.87
2019-02-24T22:03:58.614Z,14.30
2019-02-24T22:06:39.527Z,11.47
2019-02-24T22:09:20.609Z,14.13
2019-02-24T22:12:01.302Z,13.00
2019-02-24T22:14:42.291Z,15.07
2019-02-24T22:17:22.969Z,13.90
2019-02-24T22:20:04.022Z,12.63
2019-02-24T22:22:45.007Z,15.73
2019-02-24T22:25:25.731Z,12.50
2019-02-24T22:28:06.671Z,12.57
2019-02-24T22:30:47.195Z,12.80
2019-02-24T22:33:28.191Z,12.87
2019-02-24T22:36:09.654Z,15.33
2019-02-24T22:38:50.802Z,14.53
2019-02-24T22:41:31.372Z,14.73
2019-02-24T22:44:12.185Z,15.03
2019-02-24T22:46:53.075Z,14.23
2019-02-24T22:49:33.643Z,14.93
2019-02-24T22:52:13.924Z,15.10
2019-02-24T22:54:54.722Z,15.53
2019-02-24T22:57:35.858Z,14.40
2019-02-24T23:00:16.791Z,14.40
2019-02-24T23:02:57.473Z,15.47
2019-02-24T23:05:38.279Z,15.00
2019-02-24T23:08:18.771Z,14.33
2019-02-24T23:10:59.718Z,16.20
2019-02-24T23:13:40.445Z,16.20
2019-02-24T23:16:21.218Z,17.97
2019-02-24T23:19:01.865Z,18.70
2019-02-24T23:21:42.298Z,15.40
2019-02-24T23:24:24.190Z,15.33
2019-02-24T23:27:04.986Z,16.37
2019-02-24T23:29:45.541Z,16.80
2019-02-24T23:32:25.946Z,15.57
2019-02-24T23:35:06.762Z,15.33
2019-02-24T23:37:47.578Z,14.30
2019-02-24T23:40:28.398Z,13.77
2019-02-24T23:43:09.241Z,17.30
2019-02-24T23:45:49.570Z,17.20
2019-02-24T23:48:30.082Z,15.53
2019-02-24T23:51:10.848Z,15.67
2019-02-24T23:53:51.507Z,14.30
2019-02-24T23:56:32.063Z,12.83
2019-02-24T23:59:12.931Z,14.63
